TimeCST,TemperatureF,Dew PointF,Humidity,Sea Level PressureIn,VisibilityMPH,Wind Direction,Wind SpeedMPH,Gust SpeedMPH,PrecipitationIn,Events,Conditions,WindDirDegrees,DateUTC
12:15 AM,30.2,30.2,100,29.63,10.0,West,19.6,27.6,N/A,,Overcast,280,2012-11-11 06:15:00
12:35 AM,30.2,28.4,93,29.64,10.0,West,21.9,27.6,N/A,,Overcast,280,2012-11-11 06:35:00
12:55 AM,28.4,26.6,93,29.66,10.0,West,20.7,31.1,N/A,,Overcast,280,2012-11-11 06:55:00
1:15 AM,28.4,26.6,93,29.65,10.0,West,25.3,33.4,N/A,,Overcast,280,2012-11-11 07:15:00
1:35 AM,28.4,24.8,86,29.66,10.0,WNW,20.7,29.9,N/A,,Mostly Cloudy,290,2012-11-11 07:35:00
1:54 AM,28.4,24.8,86,29.66,10.0,WNW,20.7,28.8,N/A,,Scattered Clouds,290,2012-11-11 07:54:00
2:15 AM,26.6,24.8,93,29.68,10.0,WNW,18.4,29.9,N/A,,Mostly Cloudy,290,2012-11-11 08:15:00
2:35 AM,26.6,24.8,93,29.69,10.0,WNW,19.6,25.3,N/A,,Overcast,290,2012-11-11 08:35:00
2:55 AM,26.6,23.0,86,29.70,10.0,West,19.6,28.8,N/A,,Overcast,280,2012-11-11 08:55:00
3:15 AM,26.6,23.0,86,29.71,10.0,West,20.7,27.6,N/A,,Overcast,280,2012-11-11 09:15:00
3:35 AM,26.6,23.0,86,29.71,10.0,West,19.6,27.6,N/A,,Overcast,280,2012-11-11 09:35:00
3:55 AM,26.6,23.0,86,29.72,10.0,West,21.9,29.9,N/A,,Overcast,280,2012-11-11 09:55:00
4:15 AM,26.6,21.2,80,29.73,10.0,West,23.0,31.1,N/A,,Overcast,280,2012-11-11 10:15:00
4:34 AM,24.8,21.2,86,29.76,10.0,West,25.3,31.1,N/A,,Overcast,280,2012-11-11 10:34:00
4:54 AM,24.8,21.2,86,29.76,10.0,West,16.1,23.0,N/A,,Overcast,280,2012-11-11 10:54:00
5:15 AM,24.8,19.4,80,29.77,10.0,West,21.9,31.1,N/A,,Overcast,280,2012-11-11 11:15:00
5:35 AM,24.8,21.2,86,29.78,10.0,West,18.4,25.3,N/A,,Overcast,270,2012-11-11 11:35:00
5:55 AM,24.8,19.4,80,29.79,10.0,West,20.7,28.8,N/A,,Overcast,280,2012-11-11 11:55:00
6:15 AM,23.0,17.6,80,29.80,10.0,West,18.4,32.2,N/A,,Overcast,280,2012-11-11 12:15:00
6:35 AM,23.0,17.6,80,29.79,10.0,West,19.6,27.6,N/A,,Overcast,280,2012-11-11 12:35:00
6:55 AM,24.8,19.4,80,29.80,10.0,West,17.3,23.0,N/A,,Overcast,280,2012-11-11 12:55:00
7:35 AM,21.2,17.6,86,29.80,10.0,West,17.3,27.6,N/A,,Overcast,270,2012-11-11 13:35:00
7:55 AM,21.2,17.6,86,29.82,10.0,West,20.7,28.8,N/A,,Mostly Cloudy,280,2012-11-11 13:55:00
8:14 AM,21.2,15.8,80,29.83,10.0,West,19.6,26.5,N/A,,Overcast,280,2012-11-11 14:14:00
8:34 AM,21.2,15.8,80,29.82,10.0,WNW,20.7,26.5,N/A,,Mostly Cloudy,290,2012-11-11 14:34:00
8:54 AM,21.2,15.8,80,29.84,10.0,West,16.1,25.3,N/A,,Mostly Cloudy,270,2012-11-11 14:54:00
9:15 AM,21.2,15.8,80,29.84,10.0,West,15.0,26.5,N/A,,Scattered Clouds,280,2012-11-11 15:15:00
9:34 AM,21.2,15.8,80,29.83,10.0,West,18.4,23.0,N/A,,Mostly Cloudy,270,2012-11-11 15:34:00
9:54 AM,21.2,15.8,80,29.85,10.0,West,12.7,24.2,N/A,,Mostly Cloudy,260,2012-11-11 15:54:00
10:14 AM,19.4,14.0,80,29.85,10.0,West,18.4,24.2,N/A,,Mostly Cloudy,280,2012-11-11 16:14:00
10:34 AM,21.2,15.8,80,29.86,10.0,West,15.0,23.0,N/A,,Scattered Clouds,260,2012-11-11 16:34:00
11:14 AM,21.2,15.8,80,29.86,10.0,West,13.8,25.3,N/A,,Scattered Clouds,270,2012-11-11 17:14:00
11:34 AM,21.2,15.8,80,29.85,10.0,West,17.3,26.5,N/A,,Scattered Clouds,280,2012-11-11 17:34:00
12:14 PM,23.0,15.8,74,29.85,10.0,West,12.7,23.0,N/A,,Overcast,270,2012-11-11 18:14:00
12:34 PM,23.0,15.8,74,29.85,10.0,West,17.3,21.9,N/A,,Overcast,270,2012-11-11 18:34:00
12:54 PM,23.0,15.8,74,29.86,10.0,West,15.0,20.7,N/A,,Overcast,260,2012-11-11 18:54:00
1:14 PM,24.8,15.8,69,29.86,10.0,West,15.0,20.7,N/A,,Overcast,260,2012-11-11 19:14:00
1:35 PM,21.2,15.8,80,29.85,10.0,West,18.4,-,N/A,Snow,Light Snow,280,2012-11-11 19:35:00
1:54 PM,23.0,15.8,74,29.86,10.0,West,12.7,20.7,N/A,,Overcast,260,2012-11-11 19:54:00
2:15 PM,23.0,15.8,74,29.86,10.0,West,15.0,21.9,N/A,,Overcast,260,2012-11-11 20:15:00
2:35 PM,23.0,15.8,74,29.86,10.0,West,15.0,20.7,N/A,,Overcast,270,2012-11-11 20:35:00
2:55 PM,21.2,15.8,80,29.86,10.0,West,16.1,21.9,N/A,,Overcast,270,2012-11-11 20:55:00
3:15 PM,21.2,14.0,74,29.87,10.0,West,15.0,24.2,N/A,,Overcast,270,2012-11-11 21:15:00
3:35 PM,21.2,14.0,74,29.87,10.0,West,13.8,20.7,N/A,,Overcast,260,2012-11-11 21:35:00
3:55 PM,21.2,12.2,68,29.88,10.0,West,16.1,23.0,N/A,,Mostly Cloudy,280,2012-11-11 21:55:00
4:15 PM,21.2,12.2,68,29.89,10.0,West,16.1,25.3,N/A,,Mostly Cloudy,270,2012-11-11 22:15:00
4:34 PM,19.4,12.2,74,29.89,10.0,West,11.5,-,N/A,,Mostly Cloudy,270,2012-11-11 22:34:00
4:54 PM,19.4,14.0,80,29.90,7.0,West,16.1,23.0,N/A,Snow,Light Snow,260,2012-11-11 22:54:00
5:14 PM,19.4,14.0,80,29.90,10.0,West,15.0,23.0,N/A,Snow,Light Snow,270,2012-11-11 23:14:00
5:34 PM,19.4,12.2,74,29.91,10.0,West,15.0,21.9,N/A,,Overcast,270,2012-11-11 23:34:00
5:55 PM,19.4,12.2,74,29.91,10.0,West,16.1,23.0,N/A,,Overcast,260,2012-11-11 23:55:00
6:15 PM,19.4,12.2,74,29.92,10.0,West,13.8,19.6,N/A,Snow,Light Snow,270,2012-11-12 00:15:00
6:35 PM,19.4,12.2,74,29.92,10.0,WSW,17.3,21.9,N/A,,Overcast,250,2012-11-12 00:35:00
6:54 PM,19.4,12.2,74,29.92,10.0,West,11.5,18.4,N/A,,Overcast,260,2012-11-12 00:54:00
7:14 PM,19.4,12.2,74,29.92,10.0,West,11.5,20.7,N/A,,Mostly Cloudy,260,2012-11-12 01:14:00
7:34 PM,17.6,12.2,79,29.92,10.0,WSW,12.7,-,N/A,,Clear,250,2012-11-12 01:34:00
7:54 PM,17.6,12.2,79,29.92,10.0,WSW,11.5,18.4,N/A,,Clear,250,2012-11-12 01:54:00
8:15 PM,17.6,12.2,79,29.92,10.0,WSW,15.0,-,N/A,,Mostly Cloudy,250,2012-11-12 02:15:00
8:35 PM,19.4,12.2,74,29.92,10.0,West,15.0,21.9,N/A,,Overcast,260,2012-11-12 02:35:00
8:54 PM,19.4,12.2,74,29.92,10.0,WSW,15.0,21.9,N/A,,Overcast,250,2012-11-12 02:54:00
9:14 PM,19.4,12.2,74,29.92,10.0,West,15.0,25.3,N/A,,Overcast,260,2012-11-12 03:14:00
9:35 PM,19.4,12.2,74,29.92,10.0,WSW,13.8,20.7,N/A,,Overcast,250,2012-11-12 03:35:00
9:54 PM,19.4,12.2,74,29.92,10.0,WSW,15.0,24.2,N/A,,Overcast,250,2012-11-12 03:54:00
10:14 PM,19.4,12.2,74,29.92,10.0,WSW,10.4,21.9,N/A,,Overcast,250,2012-11-12 04:14:00
10:34 PM,19.4,12.2,74,29.92,10.0,West,12.7,19.6,N/A,,Overcast,260,2012-11-12 04:34:00
10:54 PM,19.4,14.0,80,29.91,10.0,West,11.5,17.3,N/A,,Overcast,260,2012-11-12 04:54:00
11:16 PM,19.4,14.0,80,29.92,10.0,West,11.5,-,N/A,,Overcast,260,2012-11-12 05:16:00
11:35 PM,19.4,14.0,80,29.92,10.0,West,11.5,19.6,N/A,Snow,Light Snow,260,2012-11-12 05:35:00
11:55 PM,19.4,15.8,86,29.92,5.0,West,9.2,-,N/A,Snow,Light Snow,260,2012-11-12 05:55:00